Time;durP1;ratioP1;P1;durP2;ratioP2;P2;SDS_P1;SDS_P2;PMS_P1;PMS_P2;Temp;Humidity;BMP_temperature;BMP_pressure;BME280_temperature;BME280_humidity;BME280_pressure;Samples;Min_cycle;Max_cycle;Signal;HPM_P1;HPM_P2
2024/01/24 11:19:36;;;;;;;10.00;4.50;;;;;;;3.61;38.21;101137.23;103485;1286;613720;-64
2024/01/24 11:22:08;;;;;;;10.00;5.00;;;;;;;3.72;38.28;101140.96;104803;1264;414003;-57
2024/01/24 11:24:52;;;;;;;9.00;4.10;;;;;;;3.77;38.42;101148.79;104970;1263;62407;-56
2024/01/24 11:27:25;;;;;;;9.10;2.90;;;;;;;3.79;37.83;101146.22;105066;1268;73964;-60
2024/01/24 11:29:55;;;;;;;6.80;3.60;;;;;;;3.72;37.46;101140.25;104888;1263;69296;-57
2024/01/24 11:32:58;;;;;;;8.50;3.20;;;;;;;3.65;37.74;101135.89;104933;1268;76931;-58
2024/01/24 11:35:35;;;;;;;7.70;3.50;;;;;;;3.58;37.79;101127.00;104745;1269;61803;-57
2024/01/24 11:38:27;;;;;;;7.70;3.30;;;;;;;3.56;38.15;101129.91;104898;1265;61476;-60
2024/01/24 11:41:01;;;;;;;7.50;3.30;;;;;;;3.61;38.18;101132.31;104852;1264;74991;-58
2024/01/24 11:43:33;;;;;;;9.60;4.40;;;;;;;3.66;38.44;101135.70;104962;1267;70442;-58
2024/01/24 11:46:06;;;;;;;7.90;3.70;;;;;;;3.81;38.54;101135.62;104916;1269;75464;-58
2024/01/24 11:48:36;;;;;;;9.70;2.60;;;;;;;3.87;38.42;101131.52;105096;1264;60027;-59
2024/01/24 11:51:14;;;;;;;5.20;2.40;;;;;;;3.93;38.43;101129.00;104951;1267;60976;-59
2024/01/24 11:53:42;;;;;;;6.80;2.80;;;;;;;3.91;38.35;101125.86;104915;1267;76446;-56
2024/01/24 11:56:16;;;;;;;6.60;3.00;;;;;;;3.86;38.35;101116.60;105006;1267;69271;-56
2024/01/24 11:58:44;;;;;;;6.90;2.90;;;;;;;3.71;38.22;101118.51;105046;1267;73698;-57
2024/01/24 12:01:12;;;;;;;7.30;3.60;;;;;;;3.47;38.40;101112.55;105061;1264;62164;-58
2024/01/24 12:03:47;;;;;;;5.60;2.60;;;;;;;3.29;38.91;101114.25;105012;1264;61836;-55
2024/01/24 12:06:16;;;;;;;5.00;2.30;;;;;;;3.22;39.54;101112.20;105114;1261;75516;-56
2024/01/24 12:08:45;;;;;;;8.30;3.10;;;;;;;3.21;39.40;101105.08;105234;1262;68262;-56
2024/01/24 12:11:18;;;;;;;10.00;3.40;;;;;;;3.19;39.48;101103.52;105262;1257;76659;-58
2024/01/24 12:13:46;;;;;;;8.90;2.70;;;;;;;3.23;39.72;101099.11;105352;1256;61815;-56
2024/01/24 12:16:14;;;;;;;7.80;2.90;;;;;;;3.28;39.82;101093.38;105311;1263;61453;-58
2024/01/24 12:18:42;;;;;;;11.20;3.20;;;;;;;3.26;39.52;101088.34;105241;1256;75394;-56
2024/01/24 12:21:11;;;;;;;7.50;2.90;;;;;;;3.20;39.44;101080.95;105262;1264;70447;-56
2024/01/24 12:23:46;;;;;;;9.60;3.70;;;;;;;3.14;39.74;101080.11;105313;1260;74096;-58
2024/01/24 12:26:15;;;;;;;6.10;2.60;;;;;;;3.14;39.87;101073.12;105225;1263;60674;-59
2024/01/24 12:28:43;;;;;;;6.40;2.50;;;;;;;3.11;39.60;101063.73;105136;1257;62578;-56
2024/01/24 12:31:12;;;;;;;7.10;3.80;;;;;;;3.07;38.76;101059.90;105157;1262;75656;-57
2024/01/24 12:33:40;;;;;;;6.40;2.90;;;;;;;2.97;38.71;101053.98;105254;1256;69725;-56
2024/01/24 12:36:10;;;;;;;5.60;2.40;;;;;;;2.89;39.00;101052.13;105131;1257;75521;-59
2024/01/24 12:38:39;;;;;;;6.90;3.00;;;;;;;2.82;38.91;101052.17;105040;1257;63044;-56
2024/01/24 12:41:07;;;;;;;6.10;2.90;;;;;;;2.73;38.75;101046.27;105188;1261;62463;-58
2024/01/24 12:43:35;;;;;;;6.10;2.70;;;;;;;2.57;38.82;101041.10;105159;1257;75517;-56
2024/01/24 12:46:07;;;;;;;7.40;3.00;;;;;;;2.40;39.04;101040.45;105306;1262;69209;-56
2024/01/24 12:48:37;;;;;;;5.70;3.00;;;;;;;2.19;39.26;101038.21;105270;1259;74041;-57
2024/01/24 12:51:06;;;;;;;6.50;2.90;;;;;;;2.00;39.92;101038.52;105498;1253;62094;-55
2024/01/24 12:53:34;;;;;;;6.70;3.20;;;;;;;1.85;40.59;101038.03;105571;1253;62662;-55
2024/01/24 12:56:03;;;;;;;7.80;3.30;;;;;;;1.78;41.13;101030.48;105636;1253;76732;-55
2024/01/24 12:58:31;;;;;;;8.90;4.40;;;;;;;1.73;41.36;101022.14;105682;1255;68417;-56
2024/01/24 13:01:00;;;;;;;16.60;5.60;;;;;;;1.68;41.73;101017.64;105544;1254;75488;-55
2024/01/24 13:03:28;;;;;;;10.80;4.80;;;;;;;1.63;42.10;101013.17;105719;1257;61714;-55
2024/01/24 13:05:57;;;;;;;15.90;7.10;;;;;;;1.60;42.16;101012.50;105688;1253;62469;-55
2024/01/24 13:08:25;;;;;;;13.20;6.10;;;;;;;1.60;42.35;101009.98;105906;1253;74951;-60
2024/01/24 13:10:55;;;;;;;11.60;5.20;;;;;;;1.58;42.64;101009.23;105455;1253;69884;-58
2024/01/24 13:13:23;;;;;;;10.80;5.20;;;;;;;1.53;42.68;101012.17;105749;1253;75249;-55
2024/01/24 13:15:53;;;;;;;11.50;4.60;;;;;;;1.40;42.69;101010.65;105772;1256;60818;-55
2024/01/24 13:18:22;;;;;;;12.00;5.80;;;;;;;1.22;43.00;101009.34;105725;1252;62938;-56
2024/01/24 13:20:50;;;;;;;13.40;7.60;;;;;;;1.03;43.31;101008.03;105602;1257;75836;-57
2024/01/24 13:23:18;;;;;;;11.90;5.50;;;;;;;0.85;43.53;101003.08;105392;1257;70368;-55
2024/01/24 13:25:46;;;;;;;14.30;5.60;;;;;;;0.66;43.94;101000.58;105689;1257;75639;-54
2024/01/24 13:28:14;;;;;;;12.20;5.80;;;;;;;0.53;44.84;100995.08;105601;1257;62611;-55
2024/01/24 13:30:44;;;;;;;12.00;6.20;;;;;;;0.43;45.15;100988.76;105701;1251;63436;-55
2024/01/24 13:33:12;;;;;;;11.50;6.40;;;;;;;0.33;45.78;100982.38;105721;1251;74745;-56
2024/01/24 13:35:40;;;;;;;15.00;8.90;;;;;;;0.27;46.28;100973.53;105707;1257;71245;-56
2024/01/24 13:38:08;;;;;;;39.70;25.20;;;;;;;0.20;46.52;100972.58;105557;1253;74447;-55
2024/01/24 13:40:36;;;;;;;110.10;73.00;;;;;;;0.13;47.32;100967.60;105763;1261;60953;-59
2024/01/24 13:43:04;;;;;;;33.60;24.00;;;;;;;0.09;47.57;100962.07;105341;1259;61462;-57
2024/01/24 13:45:33;;;;;;;17.50;12.90;;;;;;;0.03;47.87;100962.46;105654;1253;76580;-57
2024/01/24 13:48:06;;;;;;;31.20;18.70;;;;;;;-0.04;48.25;100960.82;105657;1253;69068;-57
2024/01/24 13:50:36;;;;;;;19.40;13.50;;;;;;;-0.09;48.80;100959.59;106098;1253;76042;-62
2024/01/24 13:53:04;;;;;;;16.30;8.20;;;;;;;-0.12;49.64;100965.45;105509;1257;61466;-57
2024/01/24 13:55:32;;;;;;;10.60;6.60;;;;;;;-0.15;50.49;100962.36;105679;1257;61812;-55
2024/01/24 13:58:00;;;;;;;11.20;6.10;;;;;;;-0.19;50.91;100961.80;105597;1256;75595;-56
2024/01/24 14:00:28;;;;;;;12.70;6.20;;;;;;;-0.26;51.61;100961.84;105749;1256;70616;-55
2024/01/24 14:02:56;;;;;;;15.10;6.90;;;;;;;-0.33;52.42;100961.27;105681;1257;75464;-56
2024/01/24 14:05:24;;;;;;;16.20;8.10;;;;;;;-0.41;53.11;100959.03;105667;1257;61595;-55
2024/01/24 14:07:52;;;;;;;41.00;23.30;;;;;;;-0.47;53.80;100960.77;105623;1252;63336;-55
2024/01/24 14:10:20;;;;;;;27.00;12.50;;;;;;;-0.54;54.70;100961.70;105587;1256;75848;-56
2024/01/24 14:12:48;;;;;;;22.30;10.90;;;;;;;-0.61;55.61;100961.48;105958;1256;68554;-62
2024/01/24 14:15:16;;;;;;;23.40;9.00;;;;;;;-0.69;56.01;100961.80;105493;1253;74525;-56
2024/01/24 14:18:00;;;;;;;15.90;7.30;;;;;;;-0.79;56.61;100957.40;105540;1259;62935;-56
2024/01/24 14:20:28;;;;;;;16.10;6.70;;;;;;;-0.85;57.22;100951.34;105516;1252;61335;-56
2024/01/24 14:22:56;;;;;;;14.00;6.90;;;;;;;-0.91;58.36;100947.28;105722;1253;73478;-56
2024/01/24 14:25:24;;;;;;;14.70;7.40;;;;;;;-0.97;59.32;100938.07;105455;1257;68922;-56
2024/01/24 14:27:51;;;;;;;14.50;7.10;;;;;;;-1.04;59.56;100933.71;105606;1258;75240;-59
2024/01/24 14:30:20;;;;;;;12.60;7.40;;;;;;;-1.08;60.49;100928.50;105680;1258;61476;-58
2024/01/24 14:32:48;;;;;;;14.50;7.90;;;;;;;-1.12;61.20;100923.45;105691;1253;63439;-58
2024/01/24 14:35:17;;;;;;;14.40;8.30;;;;;;;-1.17;62.39;100920.14;105693;1256;76505;-55
2024/01/24 14:37:45;;;;;;;90.80;34.80;;;;;;;-1.21;64.00;100922.94;105705;1253;69800;-55
2024/01/24 14:40:14;;;;;;;40.60;18.80;;;;;;;-1.25;65.67;100921.48;105640;1253;76659;-58
2024/01/24 14:42:42;;;;;;;16.60;8.90;;;;;;;-1.30;67.14;100918.48;105748;1254;61503;-56
2024/01/24 14:45:11;;;;;;;11.40;5.90;;;;;;;-1.35;68.61;100913.55;105346;1259;62957;-56
2024/01/24 14:47:39;;;;;;;12.30;5.70;;;;;;;-1.40;69.45;100913.98;105511;1256;76943;-57
2024/01/24 14:50:07;;;;;;;11.10;5.40;;;;;;;-1.44;70.58;100916.44;105632;1258;68507;-56
2024/01/24 14:52:35;;;;;;;18.40;8.00;;;;;;;-1.47;71.70;100914.41;105854;1253;74178;-58
2024/01/24 14:55:04;;;;;;;21.00;8.80;;;;;;;-1.50;72.65;100911.35;105602;1259;61600;-57
2024/01/24 14:57:32;;;;;;;19.70;8.40;;;;;;;-1.54;74.20;100903.25;105761;1253;63263;-56
2024/01/24 15:00:00;;;;;;;12.70;6.50;;;;;;;-1.60;75.79;100902.88;105559;1256;75779;-56
2024/01/24 15:02:28;;;;;;;12.80;7.10;;;;;;;-1.64;76.64;100901.77;105825;1255;69346;-56
2024/01/24 15:04:58;;;;;;;15.30;8.00;;;;;;;-1.66;77.25;100893.39;105708;1254;76396;-56
2024/01/24 15:07:26;;;;;;;17.20;7.80;;;;;;;-1.72;78.94;100892.64;105514;1254;61963;-55
2024/01/24 15:09:54;;;;;;;12.80;6.10;;;;;;;-1.73;79.61;100895.63;105677;1259;61464;-56
2024/01/24 15:12:22;;;;;;;13.70;6.90;;;;;;;-1.76;79.75;100891.86;105606;1256;75875;-56
2024/01/24 15:14:50;;;;;;;14.80;6.50;;;;;;;-1.77;80.74;100890.23;105719;1255;71377;-55
2024/01/24 15:17:19;;;;;;;12.10;5.90;;;;;;;-1.77;80.86;100889.89;105828;1255;75309;-55
2024/01/24 15:19:48;;;;;;;14.60;6.80;;;;;;;-1.78;82.11;100887.91;105802;1253;62999;-58
2024/01/24 15:22:19;;;;;;;15.30;6.40;;;;;;;-1.79;83.08;100885.23;105904;1256;62469;-56
2024/01/24 15:24:51;;;;;;;9.90;5.60;;;;;;;-1.78;83.93;100885.36;105733;1257;73488;-57
2024/01/24 15:27:21;;;;;;;12.10;6.30;;;;;;;-1.78;84.42;100883.14;105565;1253;68122;-57
2024/01/24 15:29:51;;;;;;;13.30;6.60;;;;;;;-1.79;85.93;100879.25;105715;1254;74175;-57
2024/01/24 15:32:19;;;;;;;12.00;6.30;;;;;;;-1.81;86.48;100880.73;105675;1258;63695;-57
2024/01/24 15:34:47;;;;;;;14.10;7.40;;;;;;;-1.82;86.98;100878.42;105594;1254;62101;-61
2024/01/24 15:37:17;;;;;;;21.70;8.70;;;;;;;-1.83;87.82;100883.09;105588;1257;76557;-56
2024/01/24 15:39:47;;;;;;;16.90;8.00;;;;;;;-1.84;89.47;100881.09;105591;1257;69943;-55
2024/01/24 15:42:19;;;;;;;19.90;8.80;;;;;;;-1.87;91.59;100880.57;105482;1254;75260;-56
2024/01/24 15:44:47;;;;;;;17.40;7.90;;;;;;;-1.88;93.05;100882.04;105835;1253;61445;-63
2024/01/24 15:47:15;;;;;;;14.80;7.60;;;;;;;-1.91;94.29;100884.20;105616;1257;62471;-56
2024/01/24 15:49:43;;;;;;;18.60;8.70;;;;;;;-1.92;95.86;100883.29;105691;1253;75158;-56
2024/01/24 15:52:11;;;;;;;18.00;9.10;;;;;;;-1.93;97.12;100879.27;105651;1253;67832;-57
2024/01/24 15:54:43;;;;;;;;;;;;;;;-1.96;96.53;100880.61;105899;1253;75070;-60
2024/01/24 15:57:11;;;;;;;17.90;8.90;;;;;;;-2.00;95.95;100875.20;105740;1258;61593;-57
2024/01/24 15:59:38;;;;;;;18.50;9.10;;;;;;;-2.03;95.84;100881.00;105404;1257;61799;-56
2024/01/24 16:02:07;;;;;;;20.00;9.40;;;;;;;-2.06;96.08;100881.17;105744;1257;76399;-57
2024/01/24 16:04:36;;;;;;;13.90;8.20;;;;;;;-2.08;96.66;100881.83;105865;1257;68648;-55
2024/01/24 16:07:05;;;;;;;17.70;7.60;;;;;;;-2.12;95.59;100883.72;105881;1256;75303;-60
2024/01/24 16:09:33;;;;;;;17.70;7.50;;;;;;;-2.16;93.78;100881.73;105654;1253;60516;-56
2024/01/24 16:12:01;;;;;;;16.70;8.40;;;;;;;-2.20;93.53;100880.41;105663;1252;62444;-57
2024/01/24 16:14:31;;;;;;;17.60;9.00;;;;;;;-2.24;92.97;100879.77;105762;1254;75250;-56
2024/01/24 16:16:59;;;;;;;22.20;9.40;;;;;;;-2.27;93.11;100876.73;105605;1253;69589;-56
2024/01/24 16:19:29;;;;;;;15.20;7.50;;;;;;;-2.32;93.05;100873.76;105849;1253;74794;-57
2024/01/24 16:21:57;;;;;;;20.00;8.90;;;;;;;-2.35;92.82;100871.39;105608;1254;62499;-57
2024/01/24 16:24:26;;;;;;;19.90;9.30;;;;;;;-2.39;93.77;100869.75;105647;1253;62543;-54
2024/01/24 16:26:55;;;;;;;27.30;12.40;;;;;;;-2.44;95.01;100864.05;105743;1257;76210;-55
2024/01/24 16:29:23;;;;;;;25.70;12.90;;;;;;;-2.49;96.14;100867.87;105649;1257;70499;-54
2024/01/24 16:31:51;;;;;;;24.50;12.60;;;;;;;-2.53;97.31;100873.20;105700;1253;75924;-55
2024/01/24 16:34:19;;;;;;;23.30;10.80;;;;;;;-2.55;98.68;100871.98;105732;1257;61834;-55
2024/01/24 16:36:48;;;;;;;20.90;11.10;;;;;;;-2.59;99.64;100868.31;105641;1257;63508;-55
2024/01/24 16:39:16;;;;;;;19.90;9.20;;;;;;;-2.64;99.24;100871.79;105633;1252;74795;-55
2024/01/24 16:41:44;;;;;;;20.80;9.70;;;;;;;-2.68;99.40;100865.21;105687;1254;70341;-56
2024/01/24 16:44:14;;;;;;;20.00;9.00;;;;;;;-2.74;99.95;100860.89;105677;1253;75140;-54
2024/01/24 16:46:42;;;;;;;18.30;9.40;;;;;;;-2.78;100.00;100866.23;105992;1253;62498;-55
2024/01/24 16:49:10;;;;;;;21.50;10.20;;;;;;;-2.81;100.00;100861.64;105740;1257;60594;-55
2024/01/24 16:51:37;;;;;;;24.50;9.90;;;;;;;-2.85;100.00;100865.09;105641;1253;75195;-54
2024/01/24 16:54:05;;;;;;;17.40;9.10;;;;;;;-2.88;100.00;100866.10;105736;1256;69304;-57
2024/01/24 16:56:33;;;;;;;17.80;9.00;;;;;;;-2.92;100.00;100861.90;105594;1257;75201;-56
2024/01/24 16:59:01;;;;;;;18.70;9.70;;;;;;;-2.96;100.00;100851.40;105848;1256;61470;-55
2024/01/24 17:01:30;;;;;;;23.50;11.20;;;;;;;-3.00;100.00;100843.13;105657;1256;62339;-54
2024/01/24 17:03:58;;;;;;;24.90;11.40;;;;;;;-3.04;100.00;100837.88;105637;1253;74679;-54
2024/01/24 17:06:26;;;;;;;24.90;11.00;;;;;;;-3.05;100.00;100835.19;105628;1256;68926;-55
2024/01/24 17:08:54;;;;;;;22.50;10.60;;;;;;;-3.07;100.00;100829.86;105799;1257;76123;-59
2024/01/24 17:11:22;;;;;;;22.90;10.90;;;;;;;-3.08;100.00;100829.09;105605;1257;63444;-56
2024/01/24 17:13:51;;;;;;;19.00;8.90;;;;;;;-3.12;100.00;100824.70;105737;1254;62868;-55
2024/01/24 17:16:19;;;;;;;15.60;7.70;;;;;;;-3.17;100.00;100815.44;105744;1253;76598;-56
2024/01/24 17:18:47;;;;;;;16.30;8.30;;;;;;;-3.23;100.00;100812.02;105967;1256;71026;-57
2024/01/24 17:21:17;;;;;;;13.10;6.60;;;;;;;-3.28;100.00;100801.06;105286;1257;74804;-55
2024/01/24 17:23:45;;;;;;;18.20;7.70;;;;;;;-3.32;100.00;100795.00;105691;1253;63602;-56
2024/01/24 17:26:13;;;;;;;17.30;7.70;;;;;;;-3.36;100.00;100794.17;105762;1253;60845;-56
2024/01/24 17:28:41;;;;;;;18.90;8.90;;;;;;;-3.38;100.00;100796.35;105579;1255;76328;-56
2024/01/24 17:31:09;;;;;;;17.50;8.20;;;;;;;-3.41;100.00;100790.68;105693;1253;69354;-56
2024/01/24 17:33:37;;;;;;;15.90;7.70;;;;;;;-3.43;100.00;100795.08;105580;1253;75274;-55
2024/01/24 17:36:06;;;;;;;17.30;7.70;;;;;;;-3.47;100.00;100787.44;105624;1253;63241;-55
2024/01/24 17:38:34;;;;;;;13.30;7.50;;;;;;;-3.52;100.00;100782.43;105520;1259;62455;-55
2024/01/24 17:41:02;;;;;;;15.90;8.00;;;;;;;-3.58;100.00;100778.54;105265;1253;75230;-59
2024/01/24 17:43:30;;;;;;;18.60;8.20;;;;;;;-3.65;100.00;100772.74;105567;1259;69090;-56
2024/01/24 17:45:58;;;;;;;18.30;8.00;;;;;;;-3.71;100.00;100774.91;105537;1258;74097;-56
2024/01/24 17:48:26;;;;;;;17.30;8.30;;;;;;;-3.78;100.00;100772.55;105635;1255;60519;-54
2024/01/24 17:50:54;;;;;;;18.30;8.00;;;;;;;-3.82;100.00;100765.17;105729;1253;62447;-53
2024/01/24 17:53:22;;;;;;;26.10;10.50;;;;;;;-3.85;100.00;100756.98;105753;1253;76142;-57
2024/01/24 17:55:51;;;;;;;16.00;7.30;;;;;;;-3.89;100.00;100753.59;105255;1254;67783;-54
2024/01/24 17:58:20;;;;;;;14.00;8.10;;;;;;;-3.91;100.00;100745.73;105455;1254;74139;-53
2024/01/24 18:00:48;;;;;;;20.10;9.20;;;;;;;-3.95;100.00;100744.58;105467;1254;62594;-54
2024/01/24 18:03:16;;;;;;;17.60;9.30;;;;;;;-3.98;100.00;100737.06;105697;1253;63592;-59
2024/01/24 18:05:44;;;;;;;18.60;7.90;;;;;;;-3.99;100.00;100737.66;105510;1259;76133;-54
2024/01/24 18:08:12;;;;;;;23.20;10.20;;;;;;;-4.01;100.00;100741.66;105577;1253;68301;-56
2024/01/24 18:10:40;;;;;;;22.40;10.40;;;;;;;-4.04;100.00;100733.49;105467;1256;74409;-53
2024/01/24 18:13:08;;;;;;;17.30;9.60;;;;;;;-4.08;100.00;100732.16;105422;1256;63879;-53
2024/01/24 18:15:36;;;;;;;15.90;8.00;;;;;;;-4.10;100.00;100734.34;105531;1259;61589;-54
2024/01/24 18:18:04;;;;;;;20.60;9.00;;;;;;;-4.14;100.00;100733.17;105803;1254;76374;-53
2024/01/24 18:20:32;;;;;;;20.90;9.50;;;;;;;-4.19;100.00;100728.97;105378;1260;68146;-54
2024/01/24 18:23:00;;;;;;;17.60;9.50;;;;;;;-4.22;100.00;100726.25;105491;1256;76238;-53
2024/01/24 18:25:29;;;;;;;15.90;8.00;;;;;;;-4.25;100.00;100725.55;105667;1259;62606;-56
2024/01/24 18:27:57;;;;;;;15.20;8.00;;;;;;;-4.27;100.00;100724.98;105295;1258;62117;-56
2024/01/24 18:30:25;;;;;;;14.30;7.30;;;;;;;-4.31;100.00;100717.02;105549;1258;76402;-54
2024/01/24 18:32:53;;;;;;;16.40;7.80;;;;;;;-4.34;100.00;100711.58;105546;1259;67526;-55
2024/01/24 18:35:21;;;;;;;18.20;7.60;;;;;;;-4.40;100.00;100708.33;105675;1259;74428;-60
2024/01/24 18:37:49;;;;;;;21.30;8.70;;;;;;;-4.45;100.00;100704.36;105269;1254;63197;-57
2024/01/24 18:40:17;;;;;;;16.70;7.50;;;;;;;-4.49;100.00;100700.48;105519;1254;62601;-55
2024/01/24 18:42:46;;;;;;;19.20;8.20;;;;;;;-4.52;100.00;100702.45;105248;1253;76177;-55
2024/01/24 18:45:15;;;;;;;15.60;8.40;;;;;;;-4.55;100.00;100702.80;105471;1259;68360;-55
2024/01/24 18:47:44;;;;;;;14.90;7.70;;;;;;;-4.59;100.00;100698.07;105486;1259;73865;-57
2024/01/24 18:50:12;;;;;;;16.50;8.30;;;;;;;-4.62;100.00;100694.69;105397;1260;61554;-56
2024/01/24 18:52:42;;;;;;;14.40;8.10;;;;;;;-4.66;100.00;100693.46;105543;1262;61463;-56
2024/01/24 18:55:12;;;;;;;18.40;8.10;;;;;;;-4.68;100.00;100689.53;105453;1253;75328;-57
2024/01/24 18:57:40;;;;;;;16.60;7.60;;;;;;;-4.71;100.00;100689.47;105585;1253;71041;-56
2024/01/24 19:00:09;;;;;;;20.00;8.20;;;;;;;-4.73;100.00;100683.66;105395;1257;73495;-56
2024/01/24 19:02:37;;;;;;;18.20;7.10;;;;;;;-4.75;100.00;100680.38;105628;1253;65329;-56
2024/01/24 19:05:06;;;;;;;17.70;7.90;;;;;;;-4.77;100.00;100678.94;105549;1258;61883;-57
2024/01/24 19:07:36;;;;;;;13.90;7.20;;;;;;;-4.80;100.00;100678.07;105404;1259;77619;-55
2024/01/24 19:10:05;;;;;;;13.00;6.60;;;;;;;-4.82;100.00;100673.25;105420;1253;71392;-55
2024/01/24 19:12:33;;;;;;;16.20;6.90;;;;;;;-4.85;100.00;100672.70;105562;1255;74479;-54
2024/01/24 19:15:01;;;;;;;15.30;6.80;;;;;;;-4.86;100.00;100667.17;105518;1259;62593;-54
2024/01/24 19:17:29;;;;;;;14.90;7.30;;;;;;;-4.90;100.00;100670.23;105620;1259;61467;-60
2024/01/24 19:19:58;;;;;;;15.20;7.50;;;;;;;-4.92;100.00;100670.15;105595;1258;75721;-54
2024/01/24 19:22:26;;;;;;;13.70;7.40;;;;;;;-4.94;100.00;100669.44;105503;1253;70763;-54
2024/01/24 19:24:54;;;;;;;14.70;7.30;;;;;;;-4.99;100.00;100668.30;105464;1259;74794;-54
2024/01/24 19:27:22;;;;;;;14.20;6.80;;;;;;;-5.02;100.00;100665.75;105645;1257;62283;-60
2024/01/24 19:29:49;;;;;;;16.80;7.70;;;;;;;-5.06;100.00;100664.05;105421;1257;61672;-55
2024/01/24 19:32:18;;;;;;;12.60;6.30;;;;;;;-5.10;100.00;100661.57;105876;1256;77881;-54
2024/01/24 19:34:54;;;;;;;12.60;6.80;;;;;;;-5.13;100.00;100659.84;105813;1253;69276;-56
2024/01/24 19:37:22;;;;;;;17.10;7.10;;;;;;;-5.17;100.00;100652.89;105839;1253;75934;-56
2024/01/24 19:39:50;;;;;;;14.00;7.20;;;;;;;-5.20;100.00;100651.16;105534;1256;64677;-55
2024/01/24 19:42:22;;;;;;;17.20;7.40;;;;;;;-5.25;100.00;100643.61;105709;1253;62386;-58
2024/01/24 19:44:50;;;;;;;12.50;6.00;;;;;;;-5.27;100.00;100641.50;106056;1253;76318;-56
2024/01/24 19:47:20;;;;;;;14.40;6.40;;;;;;;-5.30;100.00;100640.48;105656;1258;69634;-57
2024/01/24 19:49:48;;;;;;;11.60;5.20;;;;;;;-5.31;100.00;100640.20;105543;1257;75480;-56
2024/01/24 19:52:17;;;;;;;17.40;6.40;;;;;;;-5.35;100.00;100635.48;106010;1259;64474;-55
2024/01/24 19:54:45;;;;;;;14.00;6.40;;;;;;;-5.38;100.00;100634.73;106177;1258;61425;-55
2024/01/24 19:57:13;;;;;;;12.50;5.70;;;;;;;-5.42;100.00;100631.36;105703;1258;74814;-55
2024/01/24 19:59:41;;;;;;;13.40;5.80;;;;;;;-5.45;100.00;100632.21;105749;1257;69299;-54
2024/01/24 20:02:09;;;;;;;11.80;5.90;;;;;;;-5.50;100.00;100637.87;105712;1259;75237;-55
2024/01/24 20:04:37;;;;;;;10.70;5.10;;;;;;;-5.56;100.00;100631.01;105661;1257;62263;-55
2024/01/24 20:07:05;;;;;;;32.80;13.80;;;;;;;-5.60;100.00;100631.20;105901;1253;61475;-56
2024/01/24 20:09:33;;;;;;;13.30;5.40;;;;;;;-5.64;100.00;100627.30;105631;1256;76913;-54
2024/01/24 20:12:01;;;;;;;14.30;5.60;;;;;;;-5.67;100.00;100623.88;105928;1254;70644;-55
2024/01/24 20:14:29;;;;;;;10.20;4.80;;;;;;;-5.70;100.00;100626.73;105826;1253;76090;-55
2024/01/24 20:16:58;;;;;;;13.20;5.90;;;;;;;-5.73;100.00;100627.71;109399;1253;63539;-56
2024/01/24 20:19:26;;;;;;;11.00;5.10;;;;;;;-5.76;100.00;100621.93;109172;1253;61104;-54
2024/01/24 20:21:53;;;;;;;16.20;6.30;;;;;;;-5.78;100.00;100624.91;109128;1253;75765;-55
2024/01/24 20:24:21;;;;;;;22.30;8.60;;;;;;;-5.80;100.00;100627.86;109362;1253;69367;-56
2024/01/24 20:26:49;;;;;;;17.30;7.00;;;;;;;-5.81;100.00;100629.14;109382;1253;73936;-54
2024/01/24 20:29:17;;;;;;;12.90;6.10;;;;;;;-5.83;100.00;100623.47;109102;1253;61979;-55
2024/01/24 20:31:45;;;;;;;19.80;6.70;;;;;;;-5.86;100.00;100624.29;109116;1253;62463;-55
2024/01/24 20:34:12;;;;;;;11.90;5.60;;;;;;;-5.89;100.00;100620.98;109135;1253;75886;-55
2024/01/24 20:36:41;;;;;;;12.20;5.80;;;;;;;-5.90;100.00;100620.91;109139;1253;67813;-55
2024/01/24 20:39:11;;;;;;;15.10;7.10;;;;;;;-5.93;100.00;100615.98;109130;1253;75383;-59
2024/01/24 20:41:39;;;;;;;15.70;6.80;;;;;;;-5.94;100.00;100617.54;109199;1253;62832;-55
2024/01/24 20:44:07;;;;;;;13.50;6.00;;;;;;;-5.94;100.00;100617.55;109238;1253;62206;-55
2024/01/24 20:46:34;;;;;;;13.80;6.40;;;;;;;-5.92;100.00;100621.02;109237;1253;77137;-54
2024/01/24 20:49:02;;;;;;;12.20;5.60;;;;;;;-5.91;100.00;100615.88;109122;1253;69160;-56
2024/01/24 20:51:30;;;;;;;11.80;5.70;;;;;;;-5.91;100.00;100615.35;109110;1253;74737;-55
2024/01/24 20:53:58;;;;;;;9.90;5.60;;;;;;;-5.93;100.00;100615.15;109196;1253;61955;-54
2024/01/24 20:56:26;;;;;;;12.90;5.60;;;;;;;-5.95;100.00;100616.40;109186;1253;61060;-54
2024/01/24 20:58:54;;;;;;;12.40;5.80;;;;;;;-5.98;100.00;100618.41;109232;1253;77343;-53
2024/01/24 21:01:22;;;;;;;13.50;6.20;;;;;;;-5.97;100.00;100616.52;109160;1253;68869;-59
2024/01/24 21:03:50;;;;;;;13.90;6.60;;;;;;;-5.96;100.00;100610.21;109241;1253;73722;-54
2024/01/24 21:06:24;;;;;;;56.10;18.00;;;;;;;-5.97;100.00;100605.83;109186;1253;61970;-54
2024/01/24 21:08:53;;;;;;;31.40;12.40;;;;;;;-5.97;100.00;100599.58;109228;1253;61554;-54
2024/01/24 21:11:21;;;;;;;19.80;8.40;;;;;;;-5.95;100.00;100592.71;109177;1253;75968;-55
2024/01/24 21:13:49;;;;;;;13.70;7.00;;;;;;;-5.96;100.00;100587.52;109218;1257;69201;-53
2024/01/24 21:16:17;;;;;;;12.60;6.90;;;;;;;-5.98;100.00;100581.34;109229;1253;72801;-55
2024/01/24 21:18:45;;;;;;;17.40;6.60;;;;;;;-5.99;100.00;100581.91;109164;1252;58655;-53
2024/01/24 21:21:13;;;;;;;15.90;7.40;;;;;;;-5.99;100.00;100580.55;109197;1253;60144;-54
2024/01/24 21:23:41;;;;;;;13.40;6.50;;;;;;;-5.98;100.00;100572.03;109192;1252;72800;-54
2024/01/24 21:26:09;;;;;;;13.40;6.30;;;;;;;-5.96;100.00;100570.08;109262;1254;66083;-54
2024/01/24 21:28:36;;;;;;;13.30;6.10;;;;;;;-5.94;100.00;100572.38;109187;1253;72798;-57
2024/01/24 21:31:05;;;;;;;13.90;6.30;;;;;;;-5.92;100.00;100572.09;109159;1253;63005;-60
2024/01/24 21:33:34;;;;;;;12.90;6.40;;;;;;;-5.87;100.00;100573.37;109182;1253;60530;-53
2024/01/24 21:36:03;;;;;;;13.80;7.10;;;;;;;-5.82;100.00;100567.54;109236;1253;73951;-54
2024/01/24 21:38:31;;;;;;;12.30;5.70;;;;;;;-5.78;100.00;100565.48;109249;1253;67049;-54
2024/01/24 21:40:58;;;;;;;15.70;8.00;;;;;;;-5.76;100.00;100561.35;109138;1254;71438;-54
2024/01/24 21:43:26;;;;;;;11.50;5.80;;;;;;;-5.76;100.00;100557.13;109143;1253;61070;-58
2024/01/24 21:45:54;;;;;;;12.30;6.10;;;;;;;-5.75;100.00;100555.05;109183;1253;58798;-55
2024/01/24 21:48:21;;;;;;;16.40;6.80;;;;;;;-5.75;100.00;100554.20;109200;1253;73923;-54
2024/01/24 21:50:49;;;;;;;11.50;5.80;;;;;;;-5.74;100.00;100553.96;109211;1253;65785;-54
2024/01/24 21:53:17;;;;;;;14.50;6.60;;;;;;;-5.74;100.00;100555.69;109049;1255;72720;-56
2024/01/24 21:55:44;;;;;;;13.90;6.90;;;;;;;-5.74;100.00;100553.47;109296;1253;59632;-56
2024/01/24 21:58:12;;;;;;;14.40;8.00;;;;;;;-5.74;100.00;100550.23;109184;1253;58781;-55
2024/01/24 22:00:40;;;;;;;13.70;6.90;;;;;;;-5.71;100.00;100548.10;109332;1253;72671;-55
2024/01/24 22:03:08;;;;;;;14.60;7.50;;;;;;;-5.71;100.00;100546.38;109193;1253;67051;-57
2024/01/24 22:05:36;;;;;;;14.70;7.80;;;;;;;-5.73;100.00;100537.17;109139;1256;72684;-54
2024/01/24 22:08:04;;;;;;;17.20;7.60;;;;;;;-5.73;100.00;100533.64;109294;1253;59892;-53
2024/01/24 22:10:32;;;;;;;15.20;7.10;;;;;;;-5.73;100.00;100531.55;109123;1253;60106;-54
2024/01/24 22:13:00;;;;;;;13.90;7.10;;;;;;;-5.73;100.00;100527.89;109219;1253;73914;-54
2024/01/24 22:15:28;;;;;;;14.80;5.90;;;;;;;-5.72;100.00;100524.75;109185;1254;66137;-55
2024/01/24 22:17:55;;;;;;;13.90;6.70;;;;;;;-5.73;100.00;100524.79;109206;1253;72885;-55
2024/01/24 22:20:23;;;;;;;15.30;6.10;;;;;;;-5.72;100.00;100520.38;109325;1254;58924;-54
2024/01/24 22:22:50;;;;;;;14.10;6.90;;;;;;;-5.72;100.00;100522.41;109182;1253;58980;-55
2024/01/24 22:25:18;;;;;;;12.60;6.40;;;;;;;-5.71;100.00;100515.41;109318;1253;73301;-60
2024/01/24 22:27:46;;;;;;;14.00;6.80;;;;;;;-5.71;100.00;100511.50;109201;1253;65650;-55
2024/01/24 22:30:14;;;;;;;14.10;6.40;;;;;;;-5.72;100.00;100509.86;109202;1253;72726;-54
2024/01/24 22:32:42;;;;;;;16.00;6.80;;;;;;;-5.73;100.00;100504.82;109209;1253;58681;-55